Weather at Kelovic Airstrip [CLOSED]

Public forecast

Using degrees Celsius for public forecast. Weather courtesy of forecast.io.

Closest aviation weather report (METAR) to Kelovic Airstrip

Closest report is Morava Airport, 48.4 nm (89.7 km) ENE.

2024/02/25 05:30 (retrieved 11 minutes ago)

LYKV 250530Z VRB01KT CAVOK 10/07 Q1014 NOSIG

Closest aviation forecast (TAF) to Kelovic Airstrip

Forecast is more than 12 hours old.

Closest forecast is Kuk√ęs International Airport, 101.5 nm (188.0 km) SSE.

2024/02/24 12:00 Ammendment (retrieved 18 hours ago)

TAF AMD LAKU 241500Z 2412/2512 CNL